LFSG

Épinal-Mirecourt Airport

Airport
ICAO code
LFSG
IATA Code
EPL
Summary
ICAO Region
EUR
ICAO Territory
Location

, Lorraine

Serving
Epinal
Elevation
1084 ft
Coordinates
48° 19' 30" N , 6° 4' 12" E
Metar
Observation
LFSG 030100Z AUTO 04008KT 9999 OVC006 02/01 Q1015
Station
Epinal-Mirecourt
Date/Time
2022-12-03 01:00:00
Wind direction
40°
Wind speed
08 kts
Lowest cloud amount
overcast
Temperature
2°C
Dew point
1°C
Humidity
93%
QNH
1015 hPa
Weather condition
n/a

Runways

Designator Length Width Surface Rops
9/27 2700 45 CON Yes/Yes

Airport map

Aerial View

SKYbrary Partners:

Safety knowledge contributed by: